Time;durP1;ratioP1;P1;durP2;ratioP2;P2;SDS_P1;SDS_P2;PMS_P1;PMS_P2;Temp;Humidity;BMP_temperature;BMP_pressure;BME280_temperature;BME280_humidity;BME280_pressure;Samples;Min_cycle;Max_cycle;Signal;HPM_P1;HPM_P2
2022/01/30 00:00:32;;;;;;;;;;;;;;;;;;;;;
2022/01/30 00:03:16;;;;;;;;;;;6.00;99.90;;;;;;6000191;23;19947;-88
2022/01/30 00:12:55;;;;;;;;;;;5.80;99.90;;;;;;5946548;24;19998;-87
2022/01/30 00:15:53;;;;;;;;;;;5.80;99.90;;;;;;5927002;24;19941;-87
2022/01/30 00:24:44;;;;;;;;;;;5.50;99.90;;;;;;5951283;24;19925;-87
2022/01/30 00:27:17;;;;;;;;;;;5.40;99.90;;;;;;5931376;24;19922;-85
2022/01/30 00:30:15;;;;;;;;;;;5.40;99.90;;;;;;5947022;24;19919;-87
2022/01/30 00:32:52;;;;;;;;;;;5.30;99.90;;;;;;5934311;24;19919;-87
2022/01/30 00:35:33;;;;;;;;;;;5.30;99.90;;;;;;5971942;24;19994;-86
2022/01/30 00:38:39;;;;;;;;;;;;;;;;;;;;;
2022/01/30 00:41:34;;;;;;;;;;;5.40;99.90;;;;;;6036394;23;19922;-90
2022/01/30 00:44:38;;;;;;;;;;;5.40;99.90;;;;;;6014013;23;19929;-86
2022/01/30 00:54:47;;;;;;;;;;;5.60;99.90;;;;;;5949347;24;20305;-87
2022/01/30 00:57:30;;;;;;;;;;;5.60;99.90;;;;;;5942353;24;19925;-86
2022/01/30 01:00:28;;;;;;;;;;;;;;;;;;;;;
2022/01/30 01:03:00;;;;;;;;;;;5.80;99.90;;;;;;5907385;24;19927;-85
2022/01/30 01:05:30;;;;;;;;;;;5.80;99.90;;;;;;5950003;24;19933;-89
2022/01/30 01:25:42;;;;;;;;;;;;;;;;;;;;;
2022/01/30 01:32:04;;;;;;;;;;;;;;;;;;;;;
2022/01/30 01:34:56;;;;;;;;;;;5.10;99.90;;;;;;5819739;24;19919;-87
2022/01/30 01:40:54;;;;;;;;;;;;;;;;;;;;;
2022/01/30 02:05:52;;;;;;;;;;;;;;;;;;;;;
2022/01/30 02:29:15;;;;;;;;;;;5.20;99.90;;;;;;5950704;24;19926;-87
2022/01/30 02:42:28;;;;;;;;;;;5.20;99.90;;;;;;5947541;24;20723;-86
2022/01/30 02:51:21;;;;;;;;;;;5.50;99.90;;;;;;5918135;24;19964;-85
2022/01/30 03:00:29;;;;;;;;;;;5.50;99.90;;;;;;5868825;24;19920;-87
2022/01/30 04:01:44;;;;;;;;;;;;;;;;;;;;;
2022/01/30 04:04:19;;;;;;;;;;;5.60;99.90;;;;;;6075753;23;20398;-87
2022/01/30 04:10:33;;;;;;;;;;;5.60;99.90;;;;;;6121546;23;19920;-86
2022/01/30 04:14:07;;;;;;;;;;;5.60;99.90;;;;;;6100680;23;19929;-85
2022/01/30 04:17:05;;;;;;;;;;;;;;;;;;;;;
2022/01/30 04:33:30;;;;;;;;;;;5.70;99.90;;;;;;5070772;27;20490;-83
2022/01/30 04:36:03;;;;;;;;;;;5.80;99.90;;;;;;5070071;28;19929;-83
2022/01/30 04:38:55;;;;;;;;;;;5.70;99.90;;;;;;5072684;28;19921;-83
2022/01/30 04:53:03;;;;;;;;;;;5.30;99.90;;;;;;5056746;28;19986;-82
2022/01/30 04:56:16;;;;;;;;;;;5.30;99.90;;;;;;5059070;28;20417;-84
2022/01/30 04:58:45;;;;;;;;;;;;;;;;;;;;;
2022/01/30 05:07:26;;;;;;;;;;;5.10;99.90;;;;;;5020941;28;19933;-83
2022/01/30 05:09:44;;;;;;;;;;;5.10;99.90;;;;;;5035156;28;19975;-84
2022/01/30 05:12:15;;;;;;;;;;;5.10;99.90;;;;;;5043293;28;20374;-84
2022/01/30 05:15:03;;;;;;;;;;;5.20;99.90;;;;;;5093683;28;19921;-87
2022/01/30 05:17:39;;;;;;;;;;;;;;;;;;;;;
2022/01/30 05:20:16;;;;;;;;;;;;;;;;;;;;;
2022/01/30 05:23:08;;;;;;;;;;;5.20;99.90;;;;;;5060223;28;19932;-83
2022/01/30 05:25:50;;;;;;;;;;;5.10;99.90;;;;;;5041849;28;19921;-88
2022/01/30 05:31:42;;;;;;;;;;;5.00;99.90;;;;;;5047220;28;20403;-86
2022/01/30 05:34:17;;;;;;;;;;;5.00;99.90;;;;;;5049649;28;20043;-84
2022/01/30 05:36:46;;;;;;;;;;;4.90;99.90;;;;;;5018660;28;19951;-85
2022/01/30 05:39:24;;;;;;;;;;;4.90;99.90;;;;;;5051481;28;19920;-84
2022/01/30 05:48:20;;;;;;;;;;;;;;;;;;;;;
2022/01/30 05:50:56;;;;;;;;;;;4.90;99.90;;;;;;5042218;28;19932;-84
2022/01/30 05:53:41;;;;;;;;;;;4.90;99.90;;;;;;5027769;23;20025;-84
2022/01/30 05:56:13;;;;;;;;;;;4.90;99.90;;;;;;4974564;28;19941;-84
2022/01/30 05:58:44;;;;;;;;;;;4.90;99.90;;;;;;4988086;28;19993;-87
2022/01/30 06:01:13;;;;;;;;;;;4.90;99.90;;;;;;4957625;28;19934;-86
2022/01/30 06:03:41;;;;;;;;;;;4.90;99.90;;;;;;4962898;28;19953;-88
2022/01/30 06:06:10;;;;;;;;;;;4.90;99.90;;;;;;4945316;28;19930;-88
2022/01/30 06:09:18;;;;;;;;;;;4.90;99.90;;;;;;4968043;28;20298;-86
2022/01/30 06:11:55;;;;;;;;;;;;;;;;;;;;;
2022/01/30 06:14:51;;;;;;;;;;;;;;;;;;;;;
2022/01/30 06:17:28;;;;;;;;;;;5.00;99.90;;;;;;4943023;28;19929;-86
2022/01/30 06:20:21;;;;;;;;;;;5.00;99.90;;;;;;4955219;28;19929;-85
2022/01/30 06:22:46;;;;;;;;;;;5.00;99.90;;;;;;4951482;28;19930;-86
2022/01/30 06:25:15;;;;;;;;;;;5.10;99.90;;;;;;4973316;28;20764;-87
2022/01/30 06:27:41;;;;;;;;;;;5.20;99.90;;;;;;4952446;28;19922;-88
2022/01/30 06:30:09;;;;;;;;;;;5.20;99.90;;;;;;4980983;28;19941;-86
2022/01/30 06:32:34;;;;;;;;;;;5.30;99.90;;;;;;4964057;28;19929;-87
2022/01/30 06:35:00;;;;;;;;;;;5.30;99.90;;;;;;4928982;28;19922;-87
2022/01/30 06:37:26;;;;;;;;;;;5.40;99.90;;;;;;4974658;28;19926;-87
2022/01/30 06:39:52;;;;;;;;;;;5.30;99.90;;;;;;4942955;28;19937;-87
2022/01/30 06:42:17;;;;;;;;;;;5.40;99.90;;;;;;4947307;28;19933;-86
2022/01/30 06:44:46;;;;;;;;;;;5.40;99.90;;;;;;4983135;28;20626;-86
2022/01/30 06:47:16;;;;;;;;;;;5.40;99.90;;;;;;4977317;28;19928;-89
2022/01/30 06:49:45;;;;;;;;;;;5.40;99.90;;;;;;4974938;28;19929;-89
2022/01/30 06:52:11;;;;;;;;;;;5.30;99.90;;;;;;4955333;28;20217;-85
2022/01/30 06:54:37;;;;;;;;;;;5.30;99.90;;;;;;4966777;28;20228;-89
2022/01/30 06:57:03;;;;;;;;;;;5.20;99.90;;;;;;4939731;28;20274;-89
2022/01/30 06:59:35;;;;;;;;;;;5.20;99.90;;;;;;4954787;28;20001;-88
2022/01/30 07:02:12;;;;;;;;;;;5.10;99.90;;;;;;4975961;28;20370;-89
2022/01/30 07:04:38;;;;;;;;;;;5.10;99.90;;;;;;4940885;28;19926;-88
2022/01/30 07:07:26;;;;;;;;;;;5.10;99.90;;;;;;4953671;28;19921;-87
2022/01/30 07:09:52;;;;;;;;;;;5.20;99.90;;;;;;4968089;28;19927;-88
2022/01/30 07:19:14;;;;;;;;;;;5.30;99.90;;;;;;4846008;29;19930;-87
2022/01/30 07:21:51;;;;;;;;;;;5.30;99.90;;;;;;4877871;29;20463;-84
2022/01/30 07:24:24;;;;;;;;;;;5.40;99.90;;;;;;4843100;29;19939;-88
2022/01/30 07:27:03;;;;;;;;;;;5.40;99.90;;;;;;4890018;29;20019;-86
2022/01/30 07:35:27;;;;;;;;;;;5.50;99.90;;;;;;4851815;29;19979;-88
2022/01/30 07:37:55;;;;;;;;;;;5.50;99.90;;;;;;4861605;29;19961;-87
2022/01/30 07:40:23;;;;;;;;;;;5.40;99.90;;;;;;4850211;29;19963;-87
2022/01/30 07:42:53;;;;;;;;;;;5.40;99.90;;;;;;4840204;29;19977;-88
2022/01/30 07:45:24;;;;;;;;;;;5.40;99.90;;;;;;4879219;28;19926;-88
2022/01/30 07:47:57;;;;;;;;;;;5.50;99.90;;;;;;4940768;28;19977;-86
2022/01/30 07:50:23;;;;;;;;;;;5.40;99.90;;;;;;4960926;28;20337;-86
2022/01/30 07:52:48;;;;;;;;;;;5.40;99.90;;;;;;4959328;28;20134;-88
2022/01/30 07:55:24;;;;;;;;;;;;;;;;;;;;;
2022/01/30 07:57:55;;;;;;;;;;;5.40;99.90;;;;;;4984771;28;19958;-86
2022/01/30 08:00:26;;;;;;;;;;;5.40;99.90;;;;;;4936754;28;20995;-84
2022/01/30 08:02:55;;;;;;;;;;;5.40;99.90;;;;;;4968685;28;20397;-84
2022/01/30 08:05:34;;;;;;;;;;;5.50;99.90;;;;;;4930935;28;19922;-88
2022/01/30 08:07:59;;;;;;;;;;;5.50;99.90;;;;;;4923859;28;19923;-86
2022/01/30 08:10:29;;;;;;;;;;;5.50;99.90;;;;;;4970585;28;19937;-85
2022/01/30 08:13:04;;;;;;;;;;;;;;;;;;;;;
2022/01/30 08:15:32;;;;;;;;;;;5.60;99.90;;;;;;4936289;28;19923;-84
2022/01/30 08:17:58;;;;;;;;;;;5.70;99.90;;;;;;4969135;28;20042;-86
2022/01/30 08:20:26;;;;;;;;;;;5.60;99.90;;;;;;4955829;28;19922;-84
2022/01/30 08:23:29;;;;;;;;;;;5.70;99.90;;;;;;4954983;28;19980;-86
2022/01/30 08:26:02;;;;;;;;;;;5.70;99.90;;;;;;4957145;28;19945;-88
2022/01/30 08:28:30;;;;;;;;;;;5.60;99.90;;;;;;4974429;28;19929;-86
2022/01/30 08:31:00;;;;;;;;;;;5.70;99.90;;;;;;4988451;28;20387;-86
2022/01/30 08:33:25;;;;;;;;;;;5.70;99.90;;;;;;4989080;28;20090;-86
2022/01/30 08:35:59;;;;;;;;;;;5.70;99.90;;;;;;4930081;28;20395;-86
2022/01/30 08:38:30;;;;;;;;;;;5.70;99.90;;;;;;4936846;28;19930;-86
2022/01/30 08:40:55;;;;;;;;;;;5.70;99.90;;;;;;4988463;28;20407;-85
2022/01/30 08:43:22;;;;;;;;;;;5.70;99.90;;;;;;4951081;28;20021;-87
2022/01/30 08:45:50;;;;;;;;;;;5.70;99.90;;;;;;4966859;28;20418;-85
2022/01/30 08:48:24;;;;;;;;;;;5.70;99.90;;;;;;4934741;28;19933;-84
2022/01/30 08:50:52;;;;;;;;;;;5.70;99.90;;;;;;4949582;28;20135;-84
2022/01/30 08:53:18;;;;;;;;;;;5.70;99.90;;;;;;4968902;28;19922;-86
2022/01/30 08:55:46;;;;;;;;;;;5.70;99.90;;;;;;4965200;28;20385;-87
2022/01/30 08:58:13;;;;;;;;;;;5.70;99.90;;;;;;4951357;28;19929;-87
2022/01/30 09:03:14;;;;;;;;;;;5.70;99.90;;;;;;4945080;23;19930;-85
2022/01/30 09:05:43;;;;;;;;;;;5.70;99.90;;;;;;4897391;29;19923;-86
2022/01/30 09:08:14;;;;;;;;;;;5.60;99.90;;;;;;4908362;29;19950;-86
2022/01/30 09:10:41;;;;;;;;;;;5.60;99.90;;;;;;4890025;29;19926;-92
2022/01/30 09:13:07;;;;;;;;;;;5.70;99.90;;;;;;4913100;29;20913;-86
2022/01/30 09:15:40;;;;;;;;;;;5.80;99.90;;;;;;4886324;29;20420;-86
2022/01/30 09:18:08;;;;;;;;;;;5.90;99.90;;;;;;4888816;29;19927;-85
2022/01/30 09:20:35;;;;;;;;;;;6.00;99.90;;;;;;4886360;29;19930;-87
2022/01/30 09:23:08;;;;;;;;;;;6.10;99.90;;;;;;4909605;29;20315;-85
2022/01/30 09:25:36;;;;;;;;;;;6.10;99.90;;;;;;4908292;29;19923;-88
2022/01/30 09:28:08;;;;;;;;;;;6.20;99.90;;;;;;4918424;29;19927;-86
2022/01/30 09:30:42;;;;;;;;;;;6.20;99.90;;;;;;4905128;29;19954;-85
2022/01/30 09:33:11;;;;;;;;;;;6.10;99.90;;;;;;4901670;29;21321;-86
2022/01/30 09:35:40;;;;;;;;;;;6.00;99.90;;;;;;4913574;29;19930;-88
2022/01/30 09:38:09;;;;;;;;;;;6.10;99.90;;;;;;4891246;29;20337;-89
2022/01/30 09:40:38;;;;;;;;;;;6.10;99.90;;;;;;4894903;29;20483;-89
2022/01/30 09:43:03;;;;;;;;;;;6.10;99.90;;;;;;4905239;29;19938;-86
2022/01/30 09:45:29;;;;;;;;;;;6.20;99.90;;;;;;4896797;29;19930;-89
2022/01/30 09:48:05;;;;;;;;;;;6.30;99.90;;;;;;4904641;29;19923;-88
2022/01/30 09:50:31;;;;;;;;;;;6.30;99.90;;;;;;4906604;29;21090;-87
2022/01/30 09:53:29;;;;;;;;;;;6.40;99.90;;;;;;4900306;29;20387;-89
2022/01/30 09:56:06;;;;;;;;;;;6.30;99.90;;;;;;4900297;29;19990;-87
2022/01/30 09:58:32;;;;;;;;;;;6.40;99.90;;;;;;4907121;29;19927;-87
2022/01/30 10:01:06;;;;;;;;;;;6.40;99.90;;;;;;4908562;29;20001;-88
2022/01/30 10:03:32;;;;;;;;;;;6.40;99.90;;;;;;4910310;29;20212;-87
2022/01/30 10:06:08;;;;;;;;;;;6.40;99.90;;;;;;4890729;29;19930;-87
2022/01/30 10:08:41;;;;;;;;;;;6.40;99.90;;;;;;4903647;29;19986;-87
2022/01/30 10:14:18;;;;;;;;;;;;;;;;;;;;;
2022/01/30 10:16:46;;;;;;;;;;;6.50;99.90;;;;;;4929336;29;19930;-88
2022/01/30 10:19:20;;;;;;;;;;;6.50;99.90;;;;;;4917983;29;19923;-85
2022/01/30 10:21:53;;;;;;;;;;;6.50;99.90;;;;;;4922870;29;19938;-87
2022/01/30 10:24:24;;;;;;;;;;;6.50;99.90;;;;;;4905875;29;19923;-84
2022/01/30 10:26:54;;;;;;;;;;;6.50;99.90;;;;;;4899374;29;19930;-86
2022/01/30 10:29:32;;;;;;;;;;;6.60;99.90;;;;;;4927944;29;20534;-85
2022/01/30 10:32:00;;;;;;;;;;;6.60;99.90;;;;;;4909338;29;19938;-86
2022/01/30 10:34:30;;;;;;;;;;;6.60;99.90;;;;;;4903263;29;19923;-87
2022/01/30 10:37:22;;;;;;;;;;;6.60;99.90;;;;;;4909798;29;19934;-89
2022/01/30 10:39:54;;;;;;;;;;;6.60;99.90;;;;;;4914163;29;19923;-88
2022/01/30 10:42:38;;;;;;;;;;;6.70;99.90;;;;;;4897096;29;19935;-89
2022/01/30 10:45:27;;;;;;;;;;;6.80;99.90;;;;;;4922070;29;20388;-88
2022/01/30 10:48:09;;;;;;;;;;;6.80;99.90;;;;;;4900296;29;19931;-89
2022/01/30 10:50:39;;;;;;;;;;;6.80;99.90;;;;;;4908211;29;19910;-87
2022/01/30 10:53:15;;;;;;;;;;;6.90;99.90;;;;;;4907688;29;19985;-88
2022/01/30 10:55:43;;;;;;;;;;;6.90;99.90;;;;;;4904001;29;20030;-87
2022/01/30 10:58:13;;;;;;;;;;;7.00;99.90;;;;;;4910633;29;20017;-88
2022/01/30 11:00:55;;;;;;;;;;;7.10;99.90;;;;;;4906083;29;21899;-89
2022/01/30 11:03:37;;;;;;;;;;;7.30;99.90;;;;;;4910139;29;19957;-88
2022/01/30 11:06:14;;;;;;;;;;;7.20;99.90;;;;;;4910958;29;20018;-90
2022/01/30 11:09:02;;;;;;;;;;;7.20;99.90;;;;;;4910998;29;19974;-89
2022/01/30 11:11:34;;;;;;;;;;;7.30;99.90;;;;;;4907149;29;19922;-88
2022/01/30 11:14:13;;;;;;;;;;;7.30;99.90;;;;;;4897251;29;19947;-89
2022/01/30 11:19:37;;;;;;;;;;;7.30;99.90;;;;;;4924099;29;19977;-89
2022/01/30 11:22:05;;;;;;;;;;;7.20;99.90;;;;;;4910549;29;19930;-87
2022/01/30 11:24:51;;;;;;;;;;;;;;;;;;;;;
2022/01/30 11:27:20;;;;;;;;;;;7.10;99.90;;;;;;4919698;29;19930;-87
2022/01/30 11:29:46;;;;;;;;;;;7.10;99.90;;;;;;4935054;28;19927;-89
2022/01/30 11:32:18;;;;;;;;;;;7.10;99.90;;;;;;4907055;29;19937;-86
2022/01/30 11:34:57;;;;;;;;;;;7.00;99.90;;;;;;4896502;29;20169;-88
2022/01/30 11:37:33;;;;;;;;;;;7.20;99.90;;;;;;4902976;29;19946;-90
2022/01/30 11:40:09;;;;;;;;;;;7.20;99.90;;;;;;4920239;29;19965;-89
2022/01/30 11:42:45;;;;;;;;;;;7.30;99.90;;;;;;4902744;29;19935;-89
2022/01/30 11:45:16;;;;;;;;;;;7.30;99.90;;;;;;4915917;29;20394;-89
2022/01/30 11:48:06;;;;;;;;;;;7.40;99.90;;;;;;4904732;29;19962;-90
2022/01/30 11:50:50;;;;;;;;;;;7.40;99.90;;;;;;4917680;29;19931;-89
2022/01/30 11:53:44;;;;;;;;;;;;;;;;;;;;;
2022/01/30 11:56:48;;;;;;;;;;;7.40;99.90;;;;;;4918216;29;19931;-90
2022/01/30 11:59:44;;;;;;;;;;;7.40;99.90;;;;;;4920600;29;20210;-88
2022/01/30 12:02:35;;;;;;;;;;;7.30;99.90;;;;;;4905213;29;19966;-90
2022/01/30 12:05:04;;;;;;;;;;;7.40;99.90;;;;;;4897452;29;20027;-87
2022/01/30 12:07:46;;;;;;;;;;;7.40;99.90;;;;;;4919104;29;19931;-87
2022/01/30 12:10:15;;;;;;;;;;;7.40;99.90;;;;;;4907978;29;19937;-85
2022/01/30 12:12:52;;;;;;;;;;;7.40;99.90;;;;;;4909132;29;19927;-87
2022/01/30 12:15:39;;;;;;;;;;;7.40;99.90;;;;;;4904377;29;19970;-90
2022/01/30 12:18:40;;;;;;;;;;;7.30;99.90;;;;;;4898301;29;19930;-87
2022/01/30 12:21:18;;;;;;;;;;;7.30;99.90;;;;;;4913404;29;20036;-88
2022/01/30 12:23:54;;;;;;;;;;;7.50;99.90;;;;;;4900914;29;20418;-87
2022/01/30 12:26:20;;;;;;;;;;;7.50;99.90;;;;;;4900541;29;19923;-84
2022/01/30 12:28:49;;;;;;;;;;;7.60;99.90;;;;;;4900114;29;19981;-88
2022/01/30 12:31:40;;;;;;;;;;;7.80;99.90;;;;;;4902585;29;19992;-87
2022/01/30 12:34:09;;;;;;;;;;;7.80;99.90;;;;;;4904475;29;20021;-88
2022/01/30 12:36:36;;;;;;;;;;;7.90;99.90;;;;;;4914384;29;19971;-88
2022/01/30 12:39:14;;;;;;;;;;;8.00;99.90;;;;;;4899855;29;19931;-87
2022/01/30 12:41:40;;;;;;;;;;;8.00;99.90;;;;;;4899183;29;20502;-87
2022/01/30 12:44:07;;;;;;;;;;;7.90;99.90;;;;;;4907519;29;19923;-87
2022/01/30 12:46:37;;;;;;;;;;;7.80;99.90;;;;;;4916611;28;19924;-87
2022/01/30 12:49:13;;;;;;;;;;;7.60;99.90;;;;;;4902443;29;19931;-85
2022/01/30 12:51:40;;;;;;;;;;;7.70;99.90;;;;;;4899016;29;19969;-87
2022/01/30 12:55:18;;;;;;;;;;;7.90;99.90;;;;;;4906094;29;19949;-89
2022/01/30 13:01:33;;;;;;;;;;;8.20;99.90;;;;;;4909132;29;19931;-87
2022/01/30 13:04:09;;;;;;;;;;;8.20;99.90;;;;;;4910721;29;19942;-84
2022/01/30 13:06:55;;;;;;;;;;;8.10;99.90;;;;;;4912537;29;19930;-86
2022/01/30 13:09:25;;;;;;;;;;;8.10;99.90;;;;;;4909101;29;21702;-89
2022/01/30 13:12:23;;;;;;;;;;;8.00;99.90;;;;;;4911473;29;20394;-87
2022/01/30 13:14:51;;;;;;;;;;;8.00;99.90;;;;;;4918938;29;20232;-85
2022/01/30 13:17:34;;;;;;;;;;;8.10;99.90;;;;;;4895514;29;19929;-86
2022/01/30 13:20:11;;;;;;;;;;;8.20;99.90;;;;;;4916417;29;19938;-87
2022/01/30 13:25:53;;;;;;;;;;;7.90;99.90;;;;;;4908673;29;20281;-86
2022/01/30 13:28:21;;;;;;;;;;;7.70;98.60;;;;;;4925509;29;19930;-85
2022/01/30 13:34:27;;;;;;;;;;;7.40;99.90;;;;;;4889077;29;19937;-85
2022/01/30 13:36:59;;;;;;;;;;;7.20;99.90;;;;;;4889144;29;20210;-86
2022/01/30 13:39:29;;;;;;;;;;;7.00;99.90;;;;;;4870245;29;19931;-86
2022/01/30 13:42:14;;;;;;;;;;;6.90;99.90;;;;;;4886703;29;20013;-86
2022/01/30 13:44:51;;;;;;;;;;;6.90;99.90;;;;;;4888809;29;20404;-86
2022/01/30 13:47:21;;;;;;;;;;;7.00;99.90;;;;;;4879184;29;20372;-85
2022/01/30 13:49:55;;;;;;;;;;;7.20;99.90;;;;;;4872610;29;20174;-85
2022/01/30 13:52:38;;;;;;;;;;;;;;;;;;;;;
2022/01/30 13:55:13;;;;;;;;;;;7.60;99.90;;;;;;4925385;29;19929;-87
2022/01/30 13:57:58;;;;;;;;;;;;;;;;;;;;;
2022/01/30 14:00:39;;;;;;;;;;;7.90;99.90;;;;;;4930052;29;19995;-87
2022/01/30 14:03:13;;;;;;;;;;;7.80;99.90;;;;;;4912616;29;20373;-84
2022/01/30 14:06:22;;;;;;;;;;;7.60;99.90;;;;;;4926150;29;20274;-87
2022/01/30 14:08:55;;;;;;;;;;;7.40;85.40;;;;;;4907075;29;19923;-85
2022/01/30 14:11:47;;;;;;;;;;;;;;;;;;;;;
2022/01/30 14:15:06;;;;;;;;;;;7.20;99.90;;;;;;4921501;29;19921;-87
2022/01/30 14:17:43;;;;;;;;;;;7.30;99.90;;;;;;4916453;29;19971;-84
2022/01/30 14:20:12;;;;;;;;;;;7.20;99.90;;;;;;4896974;29;19927;-88
2022/01/30 14:22:38;;;;;;;;;;;7.20;97.30;;;;;;4909866;29;20089;-86
2022/01/30 14:38:41;;;;;;;;;;;7.10;99.90;;;;;;5002846;28;19948;-87
2022/01/30 14:41:53;;;;;;;;;;;;;;;;;;;;;
2022/01/30 14:55:06;;;;;;;;;;;6.90;99.90;;;;;;4826647;29;20074;-85
2022/01/30 14:58:25;;;;;;;;;;;6.90;99.90;;;;;;4802241;29;20422;-88
2022/01/30 15:01:26;;;;;;;;;;;6.90;99.90;;;;;;4785699;29;19925;-85
2022/01/30 15:21:52;;;;;;;;;;;;;;;;;;;;;
2022/01/30 15:31:14;;;;;;;;;;;6.90;99.90;;;;;;6249071;23;19973;-86
2022/01/30 15:38:00;;;;;;;;;;;;;;;;;;;;;
2022/01/30 15:41:00;;;;;;;;;;;6.70;99.90;;;;;;6207126;23;20297;-85
2022/01/30 15:44:13;;;;;;;;;;;6.60;99.90;;;;;;6143253;23;19923;-85
2022/01/30 15:50:25;;;;;;;;;;;6.40;99.90;;;;;;6142671;23;19999;-87
2022/01/30 15:52:57;;;;;;;;;;;6.30;99.90;;;;;;6162610;23;19923;-87
2022/01/30 15:59:08;;;;;;;;;;;6.10;99.90;;;;;;6150979;23;19965;-85
2022/01/30 16:02:03;;;;;;;;;;;6.00;99.90;;;;;;6077419;23;19921;-86
2022/01/30 16:05:04;;;;;;;;;;;5.80;99.90;;;;;;6084063;23;19917;-86
2022/01/30 16:12:10;;;;;;;;;;;;;;;;;;;;;
2022/01/30 16:21:12;;;;;;;;;;;;;;;;;;;;;
2022/01/30 16:24:01;;;;;;;;;;;5.10;99.90;;;;;;5923917;24;19930;-85
2022/01/30 16:26:46;;;;;;;;;;;5.10;99.90;;;;;;5940638;23;19970;-86
2022/01/30 16:32:06;;;;;;;;;;;4.90;99.90;;;;;;6016222;23;20354;-86
2022/01/30 16:40:33;;;;;;;;;;;4.70;99.90;;;;;;6240409;23;19977;-84
2022/01/30 16:43:54;;;;;;;;;;;4.50;99.90;;;;;;6201069;23;20468;-85
2022/01/30 17:42:36;;;;;;;;;;;;;;;;;;;;;
2022/01/30 17:49:35;;;;;;;;;;;3.40;99.90;;;;;;5746267;24;20479;-87
2022/01/30 19:36:02;;;;;;;;;;;3.10;99.90;;;;;;6213103;22;19920;-84
2022/01/30 19:38:49;;;;;;;;;;;3.10;99.90;;;;;;6176643;23;19935;-84
2022/01/30 19:41:38;;;;;;;;;;;3.10;99.90;;;;;;6181897;23;19998;-84
2022/01/30 19:45:40;;;;;;;;;;;3.10;99.90;;;;;;6174636;23;20413;-86
2022/01/30 19:48:03;;;;;;;;;;;3.10;99.90;;;;;;6125587;23;20297;-86
2022/01/30 23:50:34;;;;;;;;;;;3.70;99.90;;;;;;6202769;23;19977;-86
2022/01/30 23:53:14;;;;;;;;;;;;;;;;;;;;;
2022/01/30 23:56:25;;;;;;;;;;;3.80;99.90;;;;;;6192345;23;20121;-88
2022/01/30 23:59:03;;;;;;;;;;;3.80;99.90;;;;;;6158180;23;20514;-89
